Portada
METAR-TAF:

METAR-TAF

Aeropuertos :

Bandar Lengeh, Irán

latitud: 26-35N, longitud: 054-50E, altitud: 14 m

Observación

El informe se hizo hace 43 minutos, a las 17:00 UTC
Viento calma
Temperatura 23°C
Humedad 89%
Presión 1013 hPa
Visibilidad: 3000 m
neblina

METAR: OIBL 041700Z 00000KT 3000 BR NSC 23/21 Q1013

Hora: 21:13 (17:43 UTC)


TAF: falta

Observaciones y pronósticos meteorológicos de más de 4000 aeropuertos (mensajes METAR y TAF).

Los puntos amarillos y rojos representan las estaciones disponibles.

Ponga el ratón en el punto deseado para ver el nombre de la estación.

Haga clic para ver las observaciones y los pronósticos meteorológicos.

Para cambiar el mapa : haga clic en los botones verdes con una cruz de color negro para hacer un zoom, en el botón verde con un guión para alejar o en las flechas verdes para mapas adyacentes.


METAR-TAF: